createdAt,value
2019-05-16T00:02:13.925Z,1.10
2019-05-16T00:04:41.720Z,0.90
2019-05-16T00:07:08.080Z,1.10
2019-05-16T00:09:38.211Z,1.07
2019-05-16T00:12:03.246Z,1.00
2019-05-16T00:14:28.195Z,1.10
2019-05-16T00:16:52.730Z,0.90
2019-05-16T00:19:18.941Z,1.00
2019-05-16T00:21:43.576Z,1.20
2019-05-16T00:24:08.437Z,1.00
2019-05-16T00:26:32.937Z,1.07
2019-05-16T00:29:00.301Z,1.20
2019-05-16T00:31:28.621Z,0.90
2019-05-16T00:33:53.143Z,1.03
2019-05-16T00:36:18.911Z,1.00
2019-05-16T00:38:43.668Z,1.00
2019-05-16T00:41:08.632Z,1.13
2019-05-16T00:43:33.367Z,0.93
2019-05-16T00:45:58.940Z,1.00
2019-05-16T00:48:23.777Z,0.83
2019-05-16T00:50:48.467Z,0.93
2019-05-16T00:53:12.945Z,1.00
2019-05-16T00:55:38.855Z,1.00
2019-05-16T00:58:04.322Z,0.80
2019-05-16T01:00:44.070Z,1.10
2019-05-16T01:03:08.615Z,1.07
2019-05-16T01:05:33.098Z,1.00
2019-05-16T01:07:58.435Z,0.80
2019-05-16T01:10:22.984Z,0.80
2019-05-16T01:12:48.167Z,0.93
2019-05-16T01:15:12.781Z,1.27
2019-05-16T01:17:39.045Z,0.80
2019-05-16T01:20:04.296Z,0.90
2019-05-16T01:22:29.047Z,0.93
2019-05-16T01:24:53.731Z,0.90
2019-05-16T01:27:18.548Z,1.00
2019-05-16T01:29:43.309Z,0.90
2019-05-16T01:32:08.407Z,1.00
2019-05-16T01:34:33.084Z,1.10
2019-05-16T01:36:59.011Z,1.00
2019-05-16T01:39:23.794Z,0.90
2019-05-16T01:41:48.336Z,1.00
2019-05-16T01:44:12.890Z,1.00
2019-05-16T01:46:39.096Z,1.00
2019-05-16T01:49:03.591Z,1.17
2019-05-16T01:51:28.818Z,1.00
2019-05-16T01:53:53.388Z,1.00
2019-05-16T01:56:18.191Z,1.10
2019-05-16T01:58:42.710Z,1.00
2019-05-16T02:01:13.247Z,1.00
2019-05-16T02:03:33.431Z,1.00
2019-05-16T02:05:58.523Z,1.10
2019-05-16T02:08:23.079Z,1.10
2019-05-16T02:10:48.025Z,1.00
2019-05-16T02:13:12.561Z,1.20
2019-05-16T02:15:38.293Z,1.07
2019-05-16T02:18:03.086Z,1.00
2019-05-16T02:20:28.313Z,1.00
2019-05-16T02:22:53.207Z,1.23
2019-05-16T02:25:18.507Z,0.90
2019-05-16T02:27:43.494Z,1.27
2019-05-16T02:30:11.999Z,1.00
2019-05-16T02:32:34.746Z,1.10
2019-05-16T02:35:01.167Z,1.10
2019-05-16T02:37:29.930Z,1.20
2019-05-16T02:39:54.583Z,1.27
2019-05-16T02:42:21.227Z,1.10
2019-05-16T02:44:45.965Z,1.20
2019-05-16T02:47:10.989Z,1.00
2019-05-16T02:49:35.737Z,1.00
2019-05-16T02:52:01.426Z,0.97
2019-05-16T02:54:26.143Z,1.10
2019-05-16T02:56:50.838Z,1.23
2019-05-16T02:59:15.291Z,1.27
2019-05-16T03:01:40.870Z,1.10
2019-05-16T03:04:05.526Z,1.17
2019-05-16T03:06:32.105Z,0.90
2019-05-16T03:09:01.820Z,1.00
2019-05-16T03:11:25.511Z,1.07
2019-05-16T03:13:52.541Z,0.97
2019-05-16T03:16:22.136Z,1.07
2019-05-16T03:18:46.914Z,1.10
2019-05-16T03:21:12.482Z,1.13
2019-05-16T03:23:36.965Z,1.30
2019-05-16T03:26:01.695Z,1.17
2019-05-16T03:28:26.134Z,1.00
2019-05-16T03:30:54.274Z,0.80
2019-05-16T03:33:25.938Z,0.90
2019-05-16T03:35:44.459Z,1.10
2019-05-16T03:38:12.092Z,0.93
2019-05-16T03:40:36.625Z,0.90
2019-05-16T03:43:01.716Z,1.10
2019-05-16T03:45:26.453Z,1.40
2019-05-16T03:47:51.764Z,0.90
2019-05-16T03:50:16.277Z,0.90
2019-05-16T03:52:43.549Z,0.87
2019-05-16T03:55:10.774Z,1.00
2019-05-16T03:57:33.874Z,1.10
2019-05-16T04:00:00.584Z,0.80
2019-05-16T04:02:24.561Z,0.80
2019-05-16T04:04:51.087Z,1.20
2019-05-16T04:07:15.242Z,1.03
2019-05-16T04:09:41.164Z,0.90
2019-05-16T04:12:06.088Z,0.97
2019-05-16T04:14:31.073Z,0.80
2019-05-16T04:16:55.700Z,1.10
2019-05-16T04:19:21.111Z,1.00
2019-05-16T04:21:45.897Z,1.10
2019-05-16T04:24:12.163Z,1.07
2019-05-16T04:26:36.520Z,0.97
2019-05-16T04:29:01.103Z,1.20
2019-05-16T04:31:25.494Z,0.90
2019-05-16T04:33:51.652Z,0.90
2019-05-16T04:36:16.364Z,1.03
2019-05-16T04:38:46.185Z,1.03
2019-05-16T04:41:06.984Z,1.00
2019-05-16T04:43:31.873Z,1.20
2019-05-16T04:45:56.993Z,1.30
2019-05-16T04:48:22.588Z,1.30
2019-05-16T04:50:51.194Z,1.30
2019-05-16T04:53:13.768Z,1.10
2019-05-16T04:55:41.837Z,1.00
2019-05-16T04:58:04.460Z,1.00
2019-05-16T05:00:31.912Z,1.70
2019-05-16T05:02:55.074Z,1.20
2019-05-16T05:05:21.441Z,1.20
2019-05-16T05:07:45.823Z,1.20
2019-05-16T05:10:11.834Z,1.43
2019-05-16T05:12:36.263Z,1.27
2019-05-16T05:15:01.494Z,1.40
2019-05-16T05:17:26.176Z,1.40
2019-05-16T05:19:50.889Z,1.00
2019-05-16T05:22:15.555Z,1.23
2019-05-16T05:24:40.568Z,1.33
2019-05-16T05:27:05.293Z,1.23
2019-05-16T05:29:30.735Z,1.40
2019-05-16T05:31:55.925Z,1.30
2019-05-16T05:34:20.507Z,1.33
2019-05-16T05:36:44.946Z,1.20
2019-05-16T05:39:15.210Z,1.50
2019-05-16T05:41:35.633Z,1.27
2019-05-16T05:44:00.255Z,1.40
2019-05-16T05:46:24.696Z,1.57
2019-05-16T05:48:50.497Z,1.40
2019-05-16T05:51:15.343Z,1.57
2019-05-16T05:53:40.249Z,1.57
2019-05-16T05:56:04.918Z,1.73
2019-05-16T05:58:30.843Z,1.50
2019-05-16T06:00:55.463Z,1.40
2019-05-16T06:03:22.403Z,1.30
2019-05-16T06:05:46.213Z,1.60
2019-05-16T06:08:10.816Z,1.30
2019-05-16T06:10:35.270Z,1.30
2019-05-16T06:13:06.384Z,1.20
2019-05-16T06:15:32.394Z,1.50
2019-05-16T06:18:01.745Z,1.33
2019-05-16T06:20:26.189Z,1.40
2019-05-16T06:22:51.064Z,1.50
2019-05-16T06:25:16.025Z,1.40
2019-05-16T06:27:40.877Z,1.30
2019-05-16T06:30:11.459Z,1.43
2019-05-16T06:32:35.091Z,1.40
2019-05-16T06:35:00.089Z,1.50
2019-05-16T06:37:24.847Z,1.47
2019-05-16T06:39:50.282Z,1.43
2019-05-16T06:42:14.813Z,1.30
2019-05-16T06:44:40.123Z,1.77
2019-05-16T06:47:17.008Z,1.67
2019-05-16T06:49:30.988Z,1.70
2019-05-16T06:51:55.446Z,1.30
2019-05-16T06:54:20.744Z,1.47
2019-05-16T06:56:45.326Z,1.70
2019-05-16T06:59:11.428Z,1.83
2019-05-16T07:01:35.852Z,1.70
2019-05-16T07:04:00.394Z,1.93
2019-05-16T07:06:47.409Z,1.80
2019-05-16T07:08:51.161Z,1.70
2019-05-16T07:11:15.740Z,1.80
2019-05-16T07:13:40.693Z,1.70
2019-05-16T07:16:05.411Z,1.60
2019-05-16T07:18:30.962Z,1.77
2019-05-16T07:20:55.942Z,1.50
2019-05-16T07:23:21.163Z,1.77
2019-05-16T07:25:45.963Z,2.07
2019-05-16T07:28:10.412Z,1.53
2019-05-16T07:30:35.128Z,1.80
2019-05-16T07:33:00.292Z,1.73
2019-05-16T07:35:24.813Z,1.63
2019-05-16T07:37:50.033Z,1.47
2019-05-16T07:40:21.366Z,1.50
2019-05-16T07:42:41.091Z,1.60
2019-05-16T07:45:10.007Z,2.33
2019-05-16T07:47:33.646Z,1.90
2019-05-16T07:49:59.561Z,1.83
2019-05-16T07:52:24.138Z,1.90
2019-05-16T07:54:50.729Z,2.33
2019-05-16T07:57:19.536Z,2.13
2019-05-16T07:59:41.039Z,2.10
2019-05-16T08:02:05.654Z,2.27
2019-05-16T08:04:30.553Z,1.80
2019-05-16T08:06:55.140Z,1.90
2019-05-16T08:09:21.220Z,2.00
2019-05-16T08:11:45.925Z,2.23
2019-05-16T08:14:10.504Z,1.97
2019-05-16T08:16:35.042Z,2.13
2019-05-16T08:19:01.706Z,2.00
2019-05-16T08:21:27.745Z,2.30
2019-05-16T08:23:52.397Z,1.97
2019-05-16T08:26:16.873Z,2.20
2019-05-16T08:28:42.140Z,2.30
2019-05-16T08:31:06.833Z,2.03
2019-05-16T08:36:01.856Z,2.40
2019-05-16T08:38:23.792Z,2.10
2019-05-16T08:43:14.702Z,2.57
2019-05-16T08:45:41.806Z,2.20
2019-05-16T08:48:05.462Z,1.93
2019-05-16T08:50:06.466Z,2.23
2019-05-16T08:50:34.780Z,2.30
2019-05-16T08:52:56.294Z,2.30
2019-05-16T08:57:47.183Z,2.40
2019-05-16T09:00:15.151Z,2.50
2019-05-16T09:02:42.227Z,2.53
2019-05-16T09:05:07.204Z,2.27
2019-05-16T09:07:32.067Z,2.07
2019-05-16T09:10:00.255Z,2.30
2019-05-16T09:10:29.682Z,2.30
2019-05-16T09:10:31.819Z,2.40
2019-05-16T09:12:22.821Z,2.70
2019-05-16T09:14:48.181Z,2.17
2019-05-16T09:17:12.683Z,2.00
2019-05-16T09:19:37.130Z,2.20
2019-05-16T09:22:01.587Z,2.10
2019-05-16T09:24:27.179Z,2.23
2019-05-16T09:26:51.806Z,2.10
2019-05-16T09:29:16.840Z,2.03
2019-05-16T09:31:41.449Z,2.50
2019-05-16T09:34:07.458Z,2.10
2019-05-16T09:36:32.141Z,1.90
2019-05-16T09:38:57.719Z,2.27
2019-05-16T09:41:22.417Z,2.03
2019-05-16T09:43:48.617Z,2.20
2019-05-16T09:46:13.451Z,2.20
2019-05-16T09:48:38.385Z,2.30
2019-05-16T09:51:02.893Z,2.20
2019-05-16T09:53:27.964Z,2.10
2019-05-16T09:55:52.478Z,2.10
2019-05-16T09:58:18.689Z,2.10
2019-05-16T10:00:43.263Z,2.17
2019-05-16T10:03:07.992Z,2.40
2019-05-16T10:05:32.445Z,2.10
2019-05-16T10:07:57.531Z,2.10
2019-05-16T10:10:22.215Z,2.10
2019-05-16T10:12:46.749Z,2.40
2019-05-16T10:15:11.923Z,2.00
2019-05-16T10:17:36.998Z,2.07
2019-05-16T10:20:01.830Z,1.90
2019-05-16T10:22:27.233Z,2.47
2019-05-16T10:24:51.787Z,2.23
2019-05-16T10:27:17.203Z,2.20
2019-05-16T10:29:41.888Z,2.20
2019-05-16T10:32:07.622Z,2.40
2019-05-16T10:34:32.286Z,2.20
2019-05-16T10:36:57.551Z,2.53
2019-05-16T10:39:22.372Z,2.57
2019-05-16T10:41:46.971Z,2.50
2019-05-16T10:44:11.507Z,2.20
2019-05-16T10:46:37.616Z,2.50
2019-05-16T10:49:02.387Z,2.50
2019-05-16T10:51:27.093Z,2.37
2019-05-16T10:54:08.282Z,2.53
2019-05-16T10:56:17.728Z,2.70
2019-05-16T10:58:59.615Z,3.23
2019-05-16T11:01:22.274Z,2.80
2019-05-16T11:03:34.633Z,3.50
2019-05-16T11:06:05.267Z,2.77
2019-05-16T11:08:25.311Z,2.73
2019-05-16T11:10:49.974Z,2.93
2019-05-16T11:13:17.077Z,2.80
2019-05-16T11:15:40.690Z,2.60
2019-05-16T11:18:06.830Z,3.23
2019-05-16T11:20:31.563Z,2.50
2019-05-16T11:22:57.163Z,2.87
2019-05-16T11:25:28.565Z,2.97
2019-05-16T11:27:47.958Z,2.80
2019-05-16T11:30:12.814Z,2.80
2019-05-16T11:32:37.662Z,2.70
2019-05-16T11:35:02.434Z,3.30
2019-05-16T11:37:27.897Z,3.20
2019-05-16T11:39:54.646Z,3.10
2019-05-16T11:42:19.839Z,3.10
2019-05-16T11:44:47.584Z,3.47
2019-05-16T11:47:10.596Z,3.67
2019-05-16T11:49:36.897Z,3.47
2019-05-16T11:52:01.987Z,2.90
2019-05-16T11:54:26.711Z,2.93
2019-05-16T11:56:51.531Z,3.67
2019-05-16T11:59:16.042Z,3.20
2019-05-16T12:01:40.551Z,3.23
2019-05-16T12:04:07.785Z,3.20
2019-05-16T12:06:31.289Z,3.27
2019-05-16T12:08:55.760Z,3.53
2019-05-16T12:11:20.269Z,2.90
2019-05-16T12:13:47.408Z,2.97
2019-05-16T12:16:10.946Z,2.97
2019-05-16T12:18:37.336Z,3.90
2019-05-16T12:21:01.633Z,3.03
2019-05-16T12:23:27.539Z,3.00
2019-05-16T12:25:52.285Z,3.00
2019-05-16T12:28:17.045Z,2.87
2019-05-16T12:30:41.744Z,2.97
2019-05-16T12:33:07.314Z,2.77
2019-05-16T12:35:31.939Z,2.70
2019-05-16T12:37:57.065Z,3.20
2019-05-16T12:40:21.781Z,2.90
2019-05-16T12:42:47.205Z,2.93
2019-05-16T12:45:12.048Z,3.23
2019-05-16T12:47:37.570Z,3.00
2019-05-16T12:50:02.328Z,2.77
2019-05-16T12:52:27.231Z,2.80
2019-05-16T12:54:51.699Z,3.00
2019-05-16T12:57:18.162Z,3.30
2019-05-16T12:59:49.956Z,3.23
2019-05-16T13:02:08.587Z,3.10
2019-05-16T13:04:33.048Z,3.40
2019-05-16T13:06:57.980Z,3.77
2019-05-16T13:09:22.579Z,3.43
2019-05-16T13:11:47.352Z,3.50
2019-05-16T13:14:11.926Z,3.10
2019-05-16T13:16:37.599Z,3.70
2019-05-16T13:19:02.072Z,3.17
2019-05-16T13:21:27.619Z,3.43
2019-05-16T13:23:52.279Z,3.07
2019-05-16T13:26:17.632Z,3.70
2019-05-16T13:28:42.315Z,3.20
2019-05-16T13:31:07.787Z,3.50
2019-05-16T13:33:32.492Z,3.27
2019-05-16T13:35:57.799Z,4.23
2019-05-16T13:38:22.562Z,3.50
2019-05-16T13:40:48.822Z,3.70
2019-05-16T13:43:13.334Z,6.23
2019-05-16T13:45:37.989Z,4.67
2019-05-16T13:48:02.466Z,5.53
2019-05-16T13:50:27.354Z,5.20
2019-05-16T13:52:51.855Z,8.57
2019-05-16T13:55:16.923Z,6.90
2019-05-16T13:57:41.668Z,5.10
2019-05-16T14:00:10.960Z,5.50
2019-05-16T14:02:37.544Z,4.63
2019-05-16T14:05:01.564Z,4.90
2019-05-16T14:07:26.124Z,6.43
2019-05-16T14:09:50.583Z,4.10
2019-05-16T14:12:17.482Z,6.50
2019-05-16T14:14:42.635Z,5.17
2019-05-16T14:17:13.739Z,4.17
2019-05-16T14:19:33.429Z,8.37
2019-05-16T14:21:57.986Z,6.60
2019-05-16T14:24:22.511Z,4.90
2019-05-16T14:26:47.046Z,5.63
2019-05-16T14:29:11.512Z,6.77
2019-05-16T14:31:37.753Z,5.37
2019-05-16T14:34:02.269Z,7.83
2019-05-16T14:36:28.011Z,10.10
2019-05-16T14:38:57.466Z,7.50
2019-05-16T14:41:21.813Z,5.73
2019-05-16T14:43:46.808Z,5.70
2019-05-16T14:46:11.653Z,4.80
2019-05-16T14:48:37.018Z,4.20
2019-05-16T14:51:01.847Z,5.97
2019-05-16T14:53:28.362Z,4.73
2019-05-16T14:55:52.510Z,6.03
2019-05-16T14:58:17.006Z,5.73
2019-05-16T15:00:41.791Z,5.47
2019-05-16T15:03:08.340Z,4.70
2019-05-16T15:05:32.487Z,6.97
2019-05-16T15:07:57.025Z,4.50
2019-05-16T15:10:21.624Z,4.80
2019-05-16T15:12:46.947Z,5.23
2019-05-16T15:15:23.893Z,5.27
2019-05-16T15:17:39.436Z,5.50
2019-05-16T15:20:06.731Z,5.50
2019-05-16T15:22:31.421Z,5.93
2019-05-16T15:24:59.049Z,5.70
2019-05-16T15:27:22.109Z,17.77
2019-05-16T15:29:50.575Z,5.80
2019-05-16T15:32:12.794Z,6.10
2019-05-16T15:34:37.986Z,6.93
2019-05-16T15:37:02.726Z,5.67
2019-05-16T15:39:27.682Z,5.07
2019-05-16T15:41:53.311Z,5.63
2019-05-16T15:44:18.006Z,5.07
2019-05-16T15:46:42.519Z,5.73
2019-05-16T15:49:09.673Z,7.80
2019-05-16T15:51:33.762Z,8.23
2019-05-16T15:53:59.280Z,8.67
2019-05-16T15:56:23.795Z,6.57
2019-05-16T15:58:48.417Z,5.87
2019-05-16T16:01:12.964Z,8.17
2019-05-16T16:03:38.149Z,7.20
2019-05-16T16:06:02.875Z,7.40
2019-05-16T16:08:28.261Z,8.03
2019-05-16T16:10:53.009Z,6.40
2019-05-16T16:13:19.761Z,5.77
2019-05-16T16:15:53.175Z,6.63
2019-05-16T16:18:10.127Z,6.17
2019-05-16T16:20:35.019Z,10.60
2019-05-16T16:22:59.495Z,8.13
2019-05-16T16:25:26.701Z,6.30
2019-05-16T16:27:50.126Z,6.63
2019-05-16T16:30:14.750Z,10.30
2019-05-16T16:32:39.348Z,7.80
2019-05-16T16:35:04.154Z,6.27
2019-05-16T16:37:28.610Z,10.40
2019-05-16T16:39:53.087Z,8.10
2019-05-16T16:42:17.549Z,7.17
2019-05-16T16:44:42.015Z,6.60
2019-05-16T16:47:06.872Z,7.83
2019-05-16T16:49:31.433Z,6.27
2019-05-16T16:51:57.240Z,6.50
2019-05-16T16:54:21.947Z,8.97
2019-05-16T16:56:47.334Z,8.83
2019-05-16T16:59:12.192Z,8.07
2019-05-16T17:01:37.396Z,7.20
2019-05-16T17:04:02.065Z,6.70
2019-05-16T17:06:27.158Z,8.20
2019-05-16T17:08:51.786Z,6.00
2019-05-16T17:11:16.300Z,8.93
2019-05-16T17:13:40.820Z,6.13
2019-05-16T17:16:18.027Z,6.60
2019-05-16T17:18:31.581Z,6.40
2019-05-16T17:20:56.980Z,6.00
2019-05-16T17:23:21.782Z,5.60
2019-05-16T17:25:47.168Z,6.23
2019-05-16T17:28:11.941Z,5.40
2019-05-16T17:30:38.070Z,5.57
2019-05-16T17:33:08.979Z,6.50
2019-05-16T17:35:38.996Z,5.40
2019-05-16T17:38:02.867Z,5.33
2019-05-16T17:40:27.580Z,6.27
2019-05-16T17:42:52.150Z,5.20
2019-05-16T17:45:19.446Z,5.17
2019-05-16T17:47:46.626Z,5.07
2019-05-16T17:50:13.034Z,5.90
2019-05-16T17:52:37.597Z,5.60
2019-05-16T17:55:02.181Z,6.10
2019-05-16T17:57:27.497Z,6.20
2019-05-16T17:59:52.131Z,5.63
2019-05-16T18:02:17.236Z,5.10
2019-05-16T18:04:41.783Z,6.20
2019-05-16T18:07:07.327Z,5.70
2019-05-16T18:09:31.915Z,5.73
2019-05-16T18:11:57.404Z,5.90
2019-05-16T18:14:21.952Z,5.17
2019-05-16T18:16:53.615Z,5.47
2019-05-16T18:19:12.621Z,5.60
2019-05-16T18:21:37.093Z,5.60
2019-05-16T18:24:01.529Z,5.20
2019-05-16T18:26:26.850Z,6.20
2019-05-16T18:28:51.729Z,6.50
2019-05-16T18:31:17.279Z,7.37
2019-05-16T18:33:41.865Z,5.43
2019-05-16T18:36:07.746Z,5.10
2019-05-16T18:38:32.424Z,5.50
2019-05-16T18:40:56.948Z,5.63
2019-05-16T18:43:21.568Z,6.07
2019-05-16T18:45:47.167Z,6.00
2019-05-16T18:48:11.833Z,6.57
2019-05-16T18:50:37.968Z,6.30
2019-05-16T18:53:02.933Z,6.20
2019-05-16T18:55:27.465Z,5.90
2019-05-16T18:57:52.052Z,6.57
2019-05-16T19:00:17.846Z,7.00
2019-05-16T19:02:42.644Z,7.17
2019-05-16T19:05:07.877Z,6.87
2019-05-16T19:07:32.348Z,5.77
2019-05-16T19:09:56.863Z,6.20
2019-05-16T19:12:21.401Z,6.43
2019-05-16T19:14:47.309Z,6.87
2019-05-16T19:17:22.217Z,6.70
2019-05-16T19:19:38.253Z,6.90
2019-05-16T19:22:02.858Z,6.60
2019-05-16T19:24:27.830Z,6.63
2019-05-16T19:26:52.539Z,7.00
2019-05-16T19:29:23.289Z,5.93
2019-05-16T19:31:50.737Z,6.67
2019-05-16T19:34:16.279Z,6.60
2019-05-16T19:36:40.891Z,6.17
2019-05-16T19:39:08.021Z,6.57
2019-05-16T19:41:32.481Z,7.03
2019-05-16T19:43:57.250Z,7.17
2019-05-16T19:46:23.614Z,6.73
2019-05-16T19:48:48.425Z,7.43
2019-05-16T19:51:12.888Z,7.40
2019-05-16T19:53:37.442Z,6.97
2019-05-16T19:56:01.909Z,7.13
2019-05-16T19:58:26.878Z,6.90
2019-05-16T20:00:51.495Z,8.10
2019-05-16T20:03:16.665Z,7.20
2019-05-16T20:05:41.309Z,7.20
2019-05-16T20:08:06.805Z,7.40
2019-05-16T20:10:31.744Z,7.17
2019-05-16T20:12:56.922Z,7.60
2019-05-16T20:15:21.732Z,6.60
2019-05-16T20:17:56.184Z,7.07
2019-05-16T20:20:13.043Z,6.97
2019-05-16T20:22:37.502Z,7.30
2019-05-16T20:25:01.961Z,6.73
2019-05-16T20:27:27.419Z,7.30
2019-05-16T20:29:52.033Z,7.30
2019-05-16T20:32:16.918Z,7.30
2019-05-16T20:34:41.622Z,7.07
2019-05-16T20:37:09.193Z,7.13
2019-05-16T20:39:32.348Z,7.23
2019-05-16T20:41:59.653Z,7.60
2019-05-16T20:44:23.113Z,7.07
2019-05-16T20:46:49.750Z,7.73
2019-05-16T20:49:16.632Z,7.03
2019-05-16T20:51:40.226Z,7.00
2019-05-16T20:54:06.935Z,6.97
2019-05-16T20:56:31.090Z,7.23
2019-05-16T20:58:57.504Z,7.23
2019-05-16T21:01:21.977Z,7.10
2019-05-16T21:03:46.815Z,6.73
2019-05-16T21:06:11.432Z,6.97
2019-05-16T21:08:37.115Z,6.77
2019-05-16T21:11:01.839Z,6.50
2019-05-16T21:13:26.379Z,5.70
2019-05-16T21:15:50.832Z,5.77
2019-05-16T21:18:16.584Z,5.80
2019-05-16T21:20:41.423Z,5.27
2019-05-16T21:23:07.299Z,5.53
2019-05-16T21:25:31.935Z,5.80
2019-05-16T21:27:57.243Z,5.23
2019-05-16T21:30:22.133Z,6.00
2019-05-16T21:32:47.137Z,5.60
2019-05-16T21:35:12.138Z,5.50
2019-05-16T21:37:39.364Z,5.50
2019-05-16T21:40:07.936Z,5.53
2019-05-16T21:42:32.292Z,5.73
2019-05-16T21:44:57.146Z,5.33
2019-05-16T21:47:21.938Z,5.07
2019-05-16T21:49:47.202Z,5.10
2019-05-16T21:52:11.719Z,5.43
2019-05-16T21:54:36.834Z,5.60
2019-05-16T21:57:01.537Z,6.00
2019-05-16T21:59:26.686Z,5.67
2019-05-16T22:01:52.275Z,5.47
2019-05-16T22:04:16.817Z,5.60
2019-05-16T22:06:41.351Z,5.53
2019-05-16T22:09:07.664Z,6.00
2019-05-16T22:11:32.105Z,5.50
2019-05-16T22:13:57.105Z,5.63
2019-05-16T22:16:21.667Z,5.40
2019-05-16T22:18:47.366Z,5.43
2019-05-16T22:21:12.206Z,5.60
2019-05-16T22:23:37.388Z,5.30
2019-05-16T22:26:02.185Z,5.10
2019-05-16T22:28:29.907Z,5.73
2019-05-16T22:30:52.970Z,5.57
2019-05-16T22:33:17.951Z,5.60
2019-05-16T22:35:42.661Z,5.60
2019-05-16T22:38:07.183Z,5.83
2019-05-16T22:40:33.339Z,5.87
2019-05-16T22:42:57.983Z,5.90
2019-05-16T22:45:22.679Z,5.73
2019-05-16T22:47:47.468Z,6.13
2019-05-16T22:50:13.665Z,6.10
2019-05-16T22:52:38.395Z,6.10
2019-05-16T22:55:03.009Z,5.97
2019-05-16T22:57:27.513Z,6.20
2019-05-16T22:59:51.982Z,6.10
2019-05-16T23:02:16.952Z,6.60
2019-05-16T23:04:41.696Z,6.00
2019-05-16T23:07:07.118Z,6.30
2019-05-16T23:09:31.869Z,6.30
2019-05-16T23:11:56.403Z,6.70
2019-05-16T23:14:20.928Z,6.03
2019-05-16T23:16:46.450Z,5.90
2019-05-16T23:19:11.068Z,5.60
2019-05-16T23:21:36.744Z,6.80
2019-05-16T23:24:01.372Z,6.20
2019-05-16T23:26:26.859Z,6.20
2019-05-16T23:28:51.451Z,6.80
2019-05-16T23:31:16.623Z,6.27
2019-05-16T23:33:41.138Z,7.03
2019-05-16T23:36:07.069Z,6.27
2019-05-16T23:38:32.054Z,6.27
2019-05-16T23:40:57.168Z,6.77
2019-05-16T23:43:22.021Z,7.00
2019-05-16T23:45:46.966Z,6.73
2019-05-16T23:48:11.619Z,7.30
2019-05-16T23:50:36.703Z,6.33
2019-05-16T23:53:01.443Z,7.00
2019-05-16T23:55:27.776Z,7.10
2019-05-16T23:57:52.439Z,7.57
